• Join FlightAware (Why Join?)
  • Login
  • US Flag 
04:17AM EST


 

Airport Tracker/Info


-or-


 

Live Flight TrackerFlight Track Log ✈ VET380 ✈ 19-May-2013 ✈ KMOR - KGMU

Flight Track Log - Related Links

Times and Time Zones

All times are in EDT time to prevent confusion due to time zone crossing. See the VET380 flight status page for this flight to view local times or setup timezone preferences in your user account.

Time Position Orientation Groundspeed Altitude Reporting Facility
EDT Latitude Longitude Course Direction KTS MPH feet Rate Location/Type
03:02PM 35.9869 -83.2636 168° South 150 173 9,700  Level Atlanta Center
03:03PM 35.9389 -83.2489 166° South 157 181 11,100 660 Climbing Atlanta Center
03:04PM 35.8783 -83.2239 162° South 182 209 11,100  Level Atlanta Center
03:05PM 35.9216 -83.1737 149° Southeast  Level Estimated
03:05PM 35.8092 -83.1989 164° South 248 285 11,200  Level Atlanta Center
03:06PM 35.8785 -83.1406 148° Southeast  Level FlightAware Approximate
03:06PM 35.7444 -83.1636 156° South 266 306 11,300  Level Atlanta Center
03:07PM 35.6939 -83.1208 145° Southeast 233 268 11,100 -120 Descending Atlanta Center
03:08PM 35.6436 -83.0678 139° Southeast 239 275 11,100  Level Atlanta Center
03:09PM 35.5867 -83.0097 140° Southeast 253 291 11,100  Level Atlanta Center
03:10PM 35.5278 -82.9594 145° Southeast 259 298 11,100  Level Atlanta Center
03:11PM 35.4650 -82.9167 151° Southeast 259 298 11,100  Level Atlanta Center
03:12PM 35.4039 -82.8642 145° Southeast 259 298 11,100  Level Atlanta Center
03:13PM 35.3469 -82.8114 143° Southeast 259 298 11,100  Level Atlanta Center
03:14PM 35.2881 -82.7564 143° Southeast 264 304 11,100 -480 Level Atlanta Center
03:15PM 35.2289 -82.6989 142° Southeast 269 310 10,200 -1,140 Descending Atlanta Center
03:16PM 35.1700 -82.6542 148° Southeast 269 310 8,900 -1,200 Descending Atlanta Center
03:17PM 35.1131 -82.5967 140° Southeast 264 304 7,800 -1,140 Descending Atlanta Center
03:18PM 35.0561 -82.5442 143° Southeast 264 304 6,700 -1,080 Descending Atlanta Center
03:19PM 35.0178 -82.4714 123° Southeast 257 296 5,700 -960 Descending Atlanta Center
03:20PM 35.0125 -82.3878 94° East 244 281 4,800 -1,200 Descending Atlanta Center
03:21PM 34.9639 -82.3456 145° Southeast 205 236 3,400 -900 Descending Atlanta Center
03:22PM 34.9217 -82.3239 157° South 189 217 3,100 3,780 Descending Atlanta Center
03:23PM 34.8794 -82.2867 144° Southeast 189 217 11,000 7,860 Climbing Atlanta Center